Flight Track Log - Related Links

Times and Time Zones

All times are in EDT time to prevent confusion due to time zone crossing. See the CTL13 flight status page for this flight to view local times or setup timezone preferences in your user account.

Time Position Orientation Groundspeed Altitude Reporting Facility
EDT Latitude Longitude Course Direction KTS MPH feet Rate Location/Type
Thu 08:28:00 PM 39.9000 -86.2833 360° North 162 186 2,500  Level Indianapolis TRACON
Thu 08:29:00 PM 39.9315 -86.2509 21° North  Level FlightAware Approximate
Thu 08:32:46 PM 40.1142 -86.3047 344° North 160 184 5,300  Level Chicago Center
Thu 08:33:48 PM 40.1586 -86.3172 348° North 161 185 5,700 387 Climbing Chicago Center
Thu 08:34:50 PM 40.2028 -86.3319 346° North 162 186 6,100 205 Climbing Chicago Center
Thu 08:35:45 PM 40.2444 -86.3450 347° North 167 192 6,100  Level Chicago Center
Thu 08:36:00 PM 40.1720 -86.1600 15° North  Level FlightAware Approximate
Thu 08:36:45 PM 40.2919 -86.3586 348° North 168 193 6,100  Level Chicago Center
Thu 08:37:00 PM 40.2066 -86.1479 13° North  Level FlightAware Approximate
Thu 08:37:46 PM 40.3353 -86.3719 347° North 167 192 6,100  Level Chicago Center
Thu 08:38:00 PM 40.2387 -86.1795 344° North  Level Estimated
Thu 08:38:47 PM 40.3828 -86.3883 345° North 168 193 6,100  Level Chicago Center
Thu 08:40:01 PM 40.4397 -86.4036 348° North 168 193 6,100  Level Chicago Center
Thu 08:40:48 PM 40.4758 -86.4128 349° North 167 192 6,100 -97 Level Chicago Center
Thu 08:41:03 PM 40.4853 -86.4153 349° North 166 191 6,000  Descending Chicago Center
Thu 08:41:48 PM 40.5192 -86.4264 346° North 168 193 6,100 97 Climbing Chicago Center
Thu 08:42:05 PM 40.5317 -86.4294 349° North 168 193 6,100  Level Chicago Center
Thu 08:42:49 PM 40.5667 -86.4403 347° North 166 191 6,100  Level Chicago Center
Thu 08:43:07 PM 40.5767 -86.4428 349° North 165 190 6,100  Level Chicago Center
Thu 08:43:50 PM 40.6142 -86.4567 344° North 166 191 6,100 -97 Level Chicago Center
Thu 08:44:09 PM 40.6217 -86.4581 352° North 165 190 6,000  Descending Chicago Center
Thu 08:44:50 PM 40.6575 -86.4703 345° North 167 192 6,100 97 Climbing Chicago Center
Thu 08:45:11 PM 40.6753 -86.4731 353° North 167 192 6,100  Level Chicago Center
Thu 08:45:51 PM 40.7053 -86.4814 348° North 168 193 6,100  Level Chicago Center
Thu 08:46:13 PM 40.7225 -86.4872 346° North 167 192 6,100 -100 Level Chicago Center
Thu 08:46:51 PM 40.7486 -86.4950 347° North 167 192 6,000  Descending Chicago Center
Thu 08:47:15 PM 40.7669 -86.5006 347° North 165 190 6,100 98 Climbing Chicago Center
Thu 08:47:52 PM 40.7961 -86.5086 348° North 167 192 6,100  Level Chicago Center
Thu 08:48:18 PM 40.8125 -86.5144 345° North 167 192 6,100  Level Chicago Center
Thu 08:49:20 PM 40.8578 -86.5267 348° North 167 192 6,100  Level Chicago Center
Thu 08:50:22 PM 40.9033 -86.5408 347° North 168 193 6,100  Level Chicago Center
Thu 08:51:24 PM 40.9581 -86.5578 347° North 169 194 6,100  Level Chicago Center
Thu 08:52:26 PM 41.0031 -86.5692 349° North 168 193 6,100  Level Chicago Center
Thu 08:53:28 PM 41.0500 -86.5825 348° North 169 194 6,100 -48 Level Chicago Center
Thu 08:54:30 PM 41.0964 -86.5947 349° North 170 196 6,000  Descending Chicago Center
Thu 08:55:32 PM 41.1383 -86.6178 338° Northwest 171 197 6,100  Climbing Chicago Center
Thu 08:56:34 PM 41.1700 -86.6619 314° West 168 193 6,000  Descending Chicago Center
Thu 08:57:36 PM 41.2119 -86.7142 317° Northwest 170 196 6,100 48 Climbing Chicago Center
Thu 08:58:38 PM 41.2439 -86.7550 316° Northwest 167 192 6,100  Level Chicago Center
Thu 08:59:41 PM 41.2764 -86.7978 315° West 166 191 6,100  Level Chicago Center
Thu 09:00:43 PM 41.2964 -86.8522 296° West 165 190 6,100  Level Chicago Center
Thu 09:01:45 PM 41.3172 -86.9192 293° West 166 191 6,100  Level Chicago Center
Thu 09:02:47 PM 41.3353 -86.9742 294° West 164 189 6,100  Level Chicago Center
Thu 09:03:49 PM 41.3531 -87.0281 294° West 162 186 6,100 -48 Level Chicago Center
Thu 09:04:51 PM 41.3700 -87.0833 292° West 162 186 6,000 -48 Descending Chicago Center
Thu 09:05:53 PM 41.3917 -87.1333 300° West 159 183 6,000  Level Chicago Center
Thu 09:06:24 PM 41.4167 -87.1667 315° West 160 184 6,000 -264 Level Chicago TRACON
Thu 09:07:24 PM 41.4500 -87.2167 312° West 172 198 5,600 -450 Descending Chicago TRACON
Thu 09:08:24 PM 41.4667 -87.2667 294° West 180 207 5,100 -470 Descending Chicago TRACON
Thu 09:09:19 PM 41.5000 -87.3000 323° Northwest 181 208 4,700 -470 Descending Chicago TRACON
Thu 09:10:19 PM 41.5333 -87.3667 304° West 183 211 4,200 -462 Descending Chicago TRACON
Thu 09:11:03 PM 41.5525 -87.3931 314° West 183 211 3,900 -566 Descending Chicago Center
Thu 09:12:05 PM 41.5717 -87.4669 289° West 189 217 3,200 -432 Descending Chicago Center
Thu 09:13:08 PM 41.5803 -87.5300 280° West 181 208 3,000 -96 Descending Chicago Center
Thu 09:14:10 PM 41.6208 -87.5358 354° North 179 206 3,000  Level Chicago Center
Thu 09:15:12 PM 41.6542 -87.5678 324° Northwest 174 200 3,000  Level Chicago Center
Thu 09:16:14 PM 41.6833 -87.6131 311° West 167 192 3,000 -298 Level Chicago Center
Thu 09:17:13 PM 41.7167 -87.6667 310° West 149 171 2,400 -706 Descending Chicago TRACON
Thu 09:18:13 PM 41.7500 -87.7000 323° Northwest 148 170 1,600 -750 Descending Chicago TRACON
Thu 09:19:13 PM 41.7667 -87.7333 304° West 114 131 900 -700 Descending Chicago TRACON

Login

Don't have an account? Register now (free) for customized features, flight alerts, and more!